Harrell Field Information

FAA: CDH - ICAO: KCDH

Harrell Field (Airport) Location

State Arkansas
County Ouachita
City Camden
Harrell Field (Airport) is 5 miles northeast of Camden, AR.
Latitude 33-37-22.1000N
Longitude 092-45-48.2000W
Elevation 129ft

Harrell Field METARs

METAR KCDH 301835Z AUTO 19008KT 9SM CLR 22/10 A3012 RMK AO2
Altimeter 30.12"
Temperature 22.0°C (71.6°F)
Wind 190° at 8KT
Clouds Skies are clear.
Visibility 9.0mi
Time observed: 2021-11-30T18:35:00Z

Harrell Field (Airport) Details

Status Operational
Activation October 1944
Ownership Public
Usage Public
Chart MEMPHIS
ATC on-site No
Beacon schedule sunset-sunrise
Beacon color clear green

Harrell Field (Airport) Contacts

Owner CITY OF CAMDEN
Owner address PO BOX 278, CAMDEN, AR 71711
Owner phone 870-836-6436
Manager EDGAR R. THOMPSON
Manager address 1837 LEWISBURG RD, AUSTIN, AR 72007-9443
Manager phone 501-843-3230

Harrell Field Radio Frequencies

Harrell Field (Airport) Radio Frequencies

UNICOM 122.7
Common traffic advisory frequency (CTAF) 122.7